createdAt,value
2018-05-04T00:01:55.773Z,14.50
2018-05-04T00:04:29.416Z,14.40
2018-05-04T00:07:03.102Z,14.40
2018-05-04T00:09:36.643Z,14.30
2018-05-04T00:12:10.196Z,14.30
2018-05-04T00:14:43.928Z,14.30
2018-05-04T00:17:17.496Z,14.40
2018-05-04T00:19:51.049Z,14.40
2018-05-04T00:22:24.719Z,14.50
2018-05-04T00:24:58.275Z,14.50
2018-05-04T00:27:32.725Z,14.50
2018-05-04T00:30:06.446Z,14.40
2018-05-04T00:32:40.028Z,14.40
2018-05-04T00:35:13.551Z,14.40
2018-05-04T00:37:47.128Z,14.40
2018-05-04T00:40:20.700Z,14.50
2018-05-04T00:42:54.248Z,14.50
2018-05-04T00:45:27.846Z,14.50
2018-05-04T00:48:01.563Z,14.50
2018-05-04T00:50:35.962Z,14.50
2018-05-04T00:53:09.528Z,14.50
2018-05-04T00:55:43.867Z,14.50
2018-05-04T00:58:17.436Z,14.40
2018-05-04T01:00:51.796Z,14.50
2018-05-04T01:03:25.419Z,14.50
2018-05-04T01:05:58.967Z,14.40
2018-05-04T01:08:32.524Z,14.40
2018-05-04T01:11:06.076Z,14.50
2018-05-04T01:13:40.403Z,14.50
2018-05-04T01:16:13.905Z,14.50
2018-05-04T01:18:47.529Z,14.50
2018-05-04T01:21:21.083Z,14.60
2018-05-04T01:23:54.632Z,14.60
2018-05-04T01:26:28.173Z,14.50
2018-05-04T01:29:01.781Z,14.50
2018-05-04T01:31:35.342Z,14.40
2018-05-04T01:34:09.011Z,14.40
2018-05-04T01:36:42.623Z,14.50
2018-05-04T01:39:16.144Z,14.40
2018-05-04T01:41:50.518Z,14.40
2018-05-04T01:44:24.245Z,14.40
2018-05-04T01:46:57.837Z,14.50
2018-05-04T01:49:31.394Z,14.50
2018-05-04T01:52:04.986Z,14.50
2018-05-04T01:54:39.386Z,14.40
2018-05-04T01:57:13.065Z,14.50
2018-05-04T01:59:46.687Z,14.50
2018-05-04T02:02:20.263Z,14.50
2018-05-04T02:04:53.775Z,14.40
2018-05-04T02:07:27.351Z,14.20
2018-05-04T02:10:00.957Z,14.20
2018-05-04T02:12:34.542Z,14.20
2018-05-04T02:15:08.079Z,14.20
2018-05-04T02:17:41.714Z,14.30
2018-05-04T02:20:15.290Z,14.30
2018-05-04T02:22:49.665Z,14.20
2018-05-04T02:25:23.424Z,14.20
2018-05-04T02:27:57.011Z,14.30
2018-05-04T02:30:30.568Z,14.30
2018-05-04T02:33:04.895Z,14.30
2018-05-04T02:35:38.651Z,14.30
2018-05-04T02:38:12.241Z,14.30
2018-05-04T02:40:45.831Z,14.20
2018-05-04T02:43:20.238Z,14.20
2018-05-04T02:45:54.035Z,14.20
2018-05-04T02:48:27.619Z,14.20
2018-05-04T02:51:01.324Z,14.20
2018-05-04T02:53:34.940Z,14.20
2018-05-04T02:56:08.608Z,14.20
2018-05-04T02:58:42.266Z,14.10
2018-05-04T03:01:15.863Z,14.00
2018-05-04T03:03:49.563Z,14.00
2018-05-04T03:06:23.126Z,14.00
2018-05-04T03:08:56.835Z,13.90
2018-05-04T03:11:31.121Z,14.00
2018-05-04T03:14:05.582Z,14.00
2018-05-04T03:16:40.001Z,14.00
2018-05-04T03:19:13.632Z,14.00
2018-05-04T03:21:48.734Z,13.90
2018-05-04T03:24:22.332Z,13.90
2018-05-04T03:26:56.685Z,13.90
2018-05-04T03:29:30.392Z,13.90
2018-05-04T03:32:03.936Z,13.90
2018-05-04T03:34:37.577Z,13.90
2018-05-04T03:37:11.097Z,13.90
2018-05-04T03:39:44.592Z,13.90
2018-05-04T03:42:18.378Z,14.00
2018-05-04T03:44:52.101Z,13.90
2018-05-04T03:47:25.753Z,14.00
2018-05-04T03:49:59.359Z,13.90
2018-05-04T03:52:32.895Z,14.00
2018-05-04T03:55:06.506Z,13.90
2018-05-04T03:57:51.936Z,13.80
2018-05-04T04:00:37.479Z,13.70
2018-05-04T04:03:22.912Z,13.80
2018-05-04T04:05:56.516Z,13.70
2018-05-04T04:08:30.082Z,13.70
2018-05-04T04:11:03.727Z,13.70
2018-05-04T04:13:38.232Z,13.80
2018-05-04T04:16:11.957Z,13.80
2018-05-04T04:18:45.531Z,13.70
2018-05-04T04:21:19.145Z,13.70
2018-05-04T04:23:52.740Z,13.70
2018-05-04T04:26:26.328Z,13.70
2018-05-04T04:28:59.847Z,13.70
2018-05-04T04:31:33.464Z,13.70
2018-05-04T04:34:07.034Z,13.70
2018-05-04T04:36:40.575Z,13.60
2018-05-04T04:39:14.241Z,13.70
2018-05-04T04:41:47.841Z,13.70
2018-05-04T04:44:21.367Z,13.60
2018-05-04T04:46:54.968Z,13.70
2018-05-04T04:49:29.269Z,13.60
2018-05-04T04:52:03.008Z,13.60
2018-05-04T04:54:36.666Z,13.60
2018-05-04T04:57:10.224Z,13.60
2018-05-04T04:59:43.771Z,13.60
2018-05-04T05:02:17.401Z,13.50
2018-05-04T05:04:51.144Z,13.60
2018-05-04T05:07:24.667Z,13.50
2018-05-04T05:09:58.286Z,13.50
2018-05-04T05:12:31.871Z,13.50
2018-05-04T05:15:05.463Z,13.50
2018-05-04T05:17:39.062Z,13.50
2018-05-04T05:20:12.660Z,13.50
2018-05-04T05:22:46.263Z,13.60
2018-05-04T05:25:20.580Z,13.50
2018-05-04T05:27:54.284Z,13.50
2018-05-04T05:30:28.616Z,13.60
2018-05-04T05:33:03.057Z,13.60
2018-05-04T05:35:36.783Z,13.60
2018-05-04T05:38:10.322Z,13.60
2018-05-04T05:40:43.921Z,13.60
2018-05-04T05:43:17.547Z,13.60
2018-05-04T05:45:51.078Z,13.60
2018-05-04T05:48:24.640Z,13.40
2018-05-04T05:50:58.217Z,13.50
2018-05-04T05:53:31.833Z,13.50
2018-05-04T05:56:05.342Z,13.50
2018-05-04T05:58:39.643Z,13.60
2018-05-04T06:01:13.253Z,13.60
2018-05-04T06:03:46.845Z,13.50
2018-05-04T06:06:20.466Z,13.60
2018-05-04T06:08:54.009Z,13.60
2018-05-04T06:11:27.651Z,13.60
2018-05-04T06:14:01.134Z,13.70
2018-05-04T06:16:34.744Z,13.80
2018-05-04T06:19:08.341Z,13.80
2018-05-04T06:21:41.951Z,13.70
2018-05-04T06:24:15.552Z,13.70
2018-05-04T06:26:49.146Z,13.70
2018-05-04T06:29:23.482Z,13.70
2018-05-04T06:31:57.208Z,13.70
2018-05-04T06:34:30.773Z,13.80
2018-05-04T06:37:04.368Z,13.80
2018-05-04T06:39:37.917Z,13.90
2018-05-04T06:42:11.448Z,13.90
2018-05-04T06:44:45.062Z,14.00
2018-05-04T06:47:19.508Z,14.10
2018-05-04T06:49:53.198Z,14.10
2018-05-04T06:52:26.721Z,14.10
2018-05-04T06:55:01.032Z,14.10
2018-05-04T06:57:34.707Z,14.10
2018-05-04T07:00:08.320Z,14.10
2018-05-04T07:02:41.913Z,14.10
2018-05-04T07:05:15.444Z,14.20
2018-05-04T07:07:49.749Z,14.30
2018-05-04T07:10:24.269Z,14.20
2018-05-04T07:12:58.104Z,14.20
2018-05-04T07:15:31.748Z,14.20
2018-05-04T07:18:06.796Z,14.30
2018-05-04T07:20:40.486Z,14.30
2018-05-04T07:23:14.089Z,14.40
2018-05-04T07:25:48.380Z,14.50
2018-05-04T07:28:21.923Z,14.50
2018-05-04T07:30:55.527Z,14.50
2018-05-04T07:33:29.096Z,14.50
2018-05-04T07:36:02.707Z,14.60
2018-05-04T07:38:36.235Z,14.70
2018-05-04T07:41:09.846Z,14.60
2018-05-04T07:43:43.412Z,14.50
2018-05-04T07:46:17.089Z,14.50
2018-05-04T07:48:50.620Z,14.30
2018-05-04T07:51:24.961Z,14.20
2018-05-04T07:53:58.554Z,14.20
2018-05-04T07:56:37.135Z,14.30
2018-05-04T07:59:10.767Z,14.30
2018-05-04T08:01:44.306Z,14.40
2018-05-04T08:04:17.879Z,14.40
2018-05-04T08:06:52.237Z,14.40
2018-05-04T08:09:25.783Z,14.40
2018-05-04T08:11:59.273Z,14.40
2018-05-04T08:14:32.888Z,14.50
2018-05-04T08:17:06.487Z,14.60
2018-05-04T08:19:40.049Z,14.70
2018-05-04T08:22:13.708Z,14.70
2018-05-04T08:24:47.253Z,14.70
2018-05-04T08:27:20.949Z,14.70
2018-05-04T08:29:54.471Z,14.60
2018-05-04T08:32:27.998Z,14.50
2018-05-04T08:35:01.577Z,14.50
2018-05-04T08:37:35.091Z,14.60
2018-05-04T08:40:08.614Z,14.90
2018-05-04T08:42:42.175Z,15.10
2018-05-04T08:45:15.717Z,15.30
2018-05-04T08:47:49.283Z,15.50
2018-05-04T08:50:22.874Z,15.60
2018-05-04T08:52:56.445Z,15.60
2018-05-04T08:55:29.958Z,15.50
2018-05-04T08:58:04.297Z,15.10
2018-05-04T09:00:38.809Z,14.90
2018-05-04T09:03:12.571Z,14.90
2018-05-04T09:05:46.232Z,14.90
2018-05-04T09:08:19.722Z,14.80
2018-05-04T09:10:53.261Z,14.70
2018-05-04T09:13:27.122Z,14.70
2018-05-04T09:16:00.641Z,14.60
2018-05-04T09:18:34.229Z,14.70
2018-05-04T09:21:07.751Z,14.60
2018-05-04T09:23:41.406Z,14.70
2018-05-04T09:26:14.983Z,14.80
2018-05-04T09:28:48.523Z,14.80
2018-05-04T09:31:22.129Z,14.80
2018-05-04T09:33:55.719Z,14.80
2018-05-04T09:36:29.342Z,14.80
2018-05-04T09:39:02.949Z,14.80
2018-05-04T09:41:36.521Z,14.70
2018-05-04T09:44:10.020Z,14.80
2018-05-04T09:46:43.550Z,14.80
2018-05-04T09:49:17.074Z,14.90
2018-05-04T09:51:50.558Z,15.00
2018-05-04T09:54:24.075Z,15.00
2018-05-04T09:56:58.439Z,15.10
2018-05-04T09:59:32.170Z,15.10
2018-05-04T10:02:05.690Z,15.10
2018-05-04T10:04:39.342Z,15.10
2018-05-04T10:07:12.892Z,15.20
2018-05-04T10:09:46.441Z,15.10
2018-05-04T10:12:19.983Z,15.00
2018-05-04T10:14:53.685Z,14.90
2018-05-04T10:17:27.256Z,14.80
2018-05-04T10:20:00.844Z,14.80
2018-05-04T10:22:34.388Z,14.90
2018-05-04T10:25:07.945Z,15.00
2018-05-04T10:27:41.447Z,14.90
2018-05-04T10:30:15.773Z,14.80
2018-05-04T10:32:49.513Z,14.80
2018-05-04T10:35:23.073Z,14.90
2018-05-04T10:37:56.598Z,14.80
2018-05-04T10:40:30.204Z,14.80
2018-05-04T10:43:03.733Z,14.70
2018-05-04T10:45:37.254Z,14.70
2018-05-04T10:48:11.570Z,14.80
2018-05-04T10:50:45.310Z,14.80
2018-05-04T10:53:18.807Z,14.80
2018-05-04T10:55:52.373Z,14.80
2018-05-04T10:58:25.979Z,14.80
2018-05-04T11:00:59.571Z,14.70
2018-05-04T11:03:33.206Z,14.60
2018-05-04T11:06:06.783Z,14.60
2018-05-04T11:08:40.351Z,14.60
2018-05-04T11:11:13.954Z,14.60
2018-05-04T11:13:47.546Z,14.70
2018-05-04T11:16:21.108Z,14.80
2018-05-04T11:18:55.422Z,14.90
2018-05-04T11:21:29.546Z,14.90
2018-05-04T11:24:03.237Z,14.90
2018-05-04T11:26:37.525Z,15.10
2018-05-04T11:29:11.228Z,15.10
2018-05-04T11:31:44.812Z,15.20
2018-05-04T11:34:19.962Z,15.20
2018-05-04T11:36:53.550Z,15.20
2018-05-04T11:39:27.104Z,15.30
2018-05-04T11:42:00.659Z,15.20
2018-05-04T11:44:34.177Z,15.20
2018-05-04T11:47:07.769Z,15.20
2018-05-04T11:49:41.352Z,15.20
2018-05-04T11:52:14.910Z,15.10
2018-05-04T11:54:48.570Z,15.20
2018-05-04T11:57:22.133Z,15.10
2018-05-04T11:59:55.688Z,15.10
2018-05-04T12:02:29.223Z,15.00
2018-05-04T12:05:02.790Z,15.00
2018-05-04T12:07:37.090Z,15.20
2018-05-04T12:10:10.677Z,15.20
2018-05-04T12:12:44.287Z,15.30
2018-05-04T12:15:17.855Z,15.40
2018-05-04T12:17:51.519Z,15.30
2018-05-04T12:20:25.090Z,15.40
2018-05-04T12:22:59.393Z,15.60
2018-05-04T12:25:33.994Z,15.60
2018-05-04T12:28:07.619Z,15.60
2018-05-04T12:30:41.239Z,15.80
2018-05-04T12:33:14.835Z,15.80
2018-05-04T12:35:48.439Z,15.80
2018-05-04T12:38:21.930Z,15.90
2018-05-04T12:40:55.526Z,15.90
2018-05-04T12:43:29.155Z,15.90
2018-05-04T12:46:03.453Z,16.00
2018-05-04T12:48:37.153Z,16.00
2018-05-04T12:51:10.701Z,16.00
2018-05-04T12:53:44.313Z,15.90
2018-05-04T12:56:18.579Z,16.00
2018-05-04T12:58:52.896Z,16.10
2018-05-04T13:01:26.469Z,16.00
2018-05-04T13:04:00.024Z,16.20
2018-05-04T13:06:33.599Z,16.30
2018-05-04T13:09:07.905Z,16.50
2018-05-04T13:11:41.598Z,16.60
2018-05-04T13:14:15.174Z,16.70
2018-05-04T13:16:48.885Z,16.80
2018-05-04T13:19:23.332Z,16.70
2018-05-04T13:21:56.878Z,16.70
2018-05-04T13:24:30.432Z,16.80
2018-05-04T13:27:04.028Z,16.90
2018-05-04T13:29:37.632Z,16.90
2018-05-04T13:32:11.141Z,17.00
2018-05-04T13:34:44.679Z,17.10
2018-05-04T13:37:18.327Z,17.10
2018-05-04T13:39:51.946Z,16.90
2018-05-04T13:42:25.627Z,16.70
2018-05-04T13:44:59.434Z,16.60
2018-05-04T13:47:33.048Z,16.50
2018-05-04T13:50:06.650Z,16.50
2018-05-04T13:52:40.256Z,16.40
2018-05-04T13:55:13.797Z,16.30
2018-05-04T13:57:47.434Z,16.30
2018-05-04T14:00:20.980Z,16.20
2018-05-04T14:02:54.542Z,16.10
2018-05-04T14:05:28.123Z,16.10
2018-05-04T14:08:01.702Z,16.00
2018-05-04T14:10:35.269Z,16.00
2018-05-04T14:13:08.869Z,16.00
2018-05-04T14:15:42.427Z,16.10
2018-05-04T14:18:16.025Z,16.20
2018-05-04T14:20:49.661Z,16.20
2018-05-04T14:23:23.235Z,16.20
2018-05-04T14:25:57.680Z,16.20
2018-05-04T14:28:31.988Z,16.20
2018-05-04T14:31:05.609Z,16.20
2018-05-04T14:33:39.185Z,16.20
2018-05-04T14:36:12.793Z,16.30
2018-05-04T14:38:46.388Z,16.50
2018-05-04T14:41:20.134Z,16.50
2018-05-04T14:43:53.671Z,16.50
2018-05-04T14:46:27.294Z,16.40
2018-05-04T14:49:00.908Z,16.30
2018-05-04T14:51:34.431Z,16.30
2018-05-04T14:54:08.017Z,16.20
2018-05-04T14:56:41.593Z,16.30
2018-05-04T14:59:15.174Z,16.30
2018-05-04T15:01:48.803Z,16.30
2018-05-04T15:04:22.386Z,16.30
2018-05-04T15:06:55.935Z,16.40
2018-05-04T15:09:29.500Z,16.40
2018-05-04T15:12:03.036Z,16.40
2018-05-04T15:14:36.601Z,16.30
2018-05-04T15:17:10.117Z,16.30
2018-05-04T15:19:43.661Z,16.30
2018-05-04T15:22:17.278Z,16.30
2018-05-04T15:24:50.798Z,16.40
2018-05-04T15:27:24.539Z,16.60
2018-05-04T15:29:58.076Z,16.70
2018-05-04T15:32:31.678Z,16.80
2018-05-04T15:35:06.009Z,17.00
2018-05-04T15:37:39.694Z,16.90
2018-05-04T15:40:13.220Z,16.90
2018-05-04T15:42:47.063Z,16.90
2018-05-04T15:45:20.613Z,16.80
2018-05-04T15:47:54.224Z,16.70
2018-05-04T15:50:33.549Z,16.80
2018-05-04T15:53:07.874Z,16.90
2018-05-04T15:55:41.584Z,16.90
2018-05-04T15:58:15.074Z,16.80
2018-05-04T16:00:49.402Z,16.60
2018-05-04T16:03:23.125Z,16.60
2018-05-04T16:05:56.739Z,16.50
2018-05-04T16:08:30.284Z,16.50
2018-05-04T16:11:03.886Z,16.40
2018-05-04T16:13:37.514Z,16.40
2018-05-04T16:16:11.085Z,16.50
2018-05-04T16:18:44.624Z,16.50
2018-05-04T16:21:18.198Z,16.50
2018-05-04T16:23:51.755Z,16.40
2018-05-04T16:26:25.476Z,16.40
2018-05-04T16:28:59.181Z,16.50
2018-05-04T16:31:32.614Z,16.60
2018-05-04T16:34:06.301Z,16.60
2018-05-04T16:36:39.914Z,16.60
2018-05-04T16:39:13.493Z,16.60
2018-05-04T16:41:47.019Z,16.60
2018-05-04T16:44:20.599Z,16.50
2018-05-04T16:46:59.803Z,16.50
2018-05-04T16:49:33.366Z,16.50
2018-05-04T16:52:06.959Z,16.40
2018-05-04T16:54:40.435Z,16.40
2018-05-04T16:57:14.035Z,16.40
2018-05-04T16:59:47.630Z,16.40
2018-05-04T17:02:21.179Z,16.40
2018-05-04T17:04:54.718Z,16.40
2018-05-04T17:07:28.274Z,16.50
2018-05-04T17:10:01.819Z,16.40
2018-05-04T17:12:35.341Z,16.40
2018-05-04T17:15:09.058Z,16.40
2018-05-04T17:17:42.769Z,16.40
2018-05-04T17:20:16.405Z,16.40
2018-05-04T17:22:49.851Z,16.40
2018-05-04T17:25:23.470Z,16.50
2018-05-04T17:27:57.761Z,16.50
2018-05-04T17:30:31.456Z,16.50
2018-05-04T17:33:05.033Z,16.60
2018-05-04T17:35:39.118Z,16.70
2018-05-04T17:38:13.042Z,16.70
2018-05-04T17:40:47.492Z,16.60
2018-05-04T17:43:21.905Z,16.50
2018-05-04T17:45:55.631Z,16.50
2018-05-04T17:48:29.208Z,16.40
2018-05-04T17:51:02.717Z,16.30
2018-05-04T17:53:36.258Z,16.20
2018-05-04T17:56:09.812Z,16.20
2018-05-04T17:58:44.497Z,16.30
2018-05-04T18:01:18.219Z,16.30
2018-05-04T18:03:51.784Z,16.30
2018-05-04T18:06:25.348Z,16.30
2018-05-04T18:08:59.036Z,16.20
2018-05-04T18:11:32.665Z,16.20
2018-05-04T18:14:06.277Z,16.30
2018-05-04T18:16:39.834Z,16.40
2018-05-04T18:19:13.589Z,16.30
2018-05-04T18:21:47.233Z,16.20
2018-05-04T18:24:20.966Z,16.20
2018-05-04T18:26:54.573Z,16.10
2018-05-04T18:29:28.170Z,16.20
2018-05-04T18:32:01.711Z,16.20
2018-05-04T18:34:35.303Z,16.30
2018-05-04T18:37:09.360Z,16.30
2018-05-04T18:39:43.022Z,16.20
2018-05-04T18:42:16.690Z,16.20
2018-05-04T18:44:50.290Z,16.20
2018-05-04T18:47:24.006Z,16.10
2018-05-04T18:49:57.526Z,16.10
2018-05-04T18:52:31.104Z,16.10
2018-05-04T18:55:04.679Z,16.20
2018-05-04T18:57:38.291Z,16.20
2018-05-04T19:00:11.947Z,16.10
2018-05-04T19:02:51.233Z,16.10
2018-05-04T19:05:25.019Z,16.10
2018-05-04T19:07:58.744Z,16.10
2018-05-04T19:10:32.275Z,16.10
2018-05-04T19:13:05.972Z,16.20
2018-05-04T19:15:40.471Z,16.30
2018-05-04T19:18:14.035Z,16.20
2018-05-04T19:20:47.598Z,16.20
2018-05-04T19:23:21.170Z,16.20
2018-05-04T19:25:54.856Z,16.20
2018-05-04T19:28:28.410Z,16.20
2018-05-04T19:31:01.976Z,16.10
2018-05-04T19:33:35.584Z,16.10
2018-05-04T19:36:09.160Z,16.00
2018-05-04T19:38:42.693Z,16.10
2018-05-04T19:41:16.253Z,16.00
2018-05-04T19:43:49.856Z,16.00
2018-05-04T19:46:23.448Z,16.00
2018-05-04T19:48:57.789Z,15.90
2018-05-04T19:51:31.373Z,15.80
2018-05-04T19:54:04.980Z,15.90
2018-05-04T19:56:38.596Z,15.80
2018-05-04T19:59:12.219Z,15.80
2018-05-04T20:01:45.784Z,15.80
2018-05-04T20:04:20.101Z,15.80
2018-05-04T20:06:54.433Z,15.80
2018-05-04T20:09:28.843Z,15.80
2018-05-04T20:12:02.415Z,15.80
2018-05-04T20:14:36.763Z,15.80
2018-05-04T20:17:10.474Z,15.80
2018-05-04T20:19:43.986Z,15.80
2018-05-04T20:22:18.473Z,15.70
2018-05-04T20:24:52.080Z,15.80
2018-05-04T20:27:25.686Z,15.80
2018-05-04T20:29:59.269Z,15.80
2018-05-04T20:32:32.820Z,15.80
2018-05-04T20:35:06.371Z,15.70
2018-05-04T20:37:39.938Z,15.70
2018-05-04T20:40:14.292Z,15.70
2018-05-04T20:42:48.024Z,15.70
2018-05-04T20:45:22.531Z,15.60
2018-05-04T20:47:56.040Z,15.60
2018-05-04T20:50:29.665Z,15.60
2018-05-04T20:53:03.227Z,15.60
2018-05-04T20:55:36.748Z,15.50
2018-05-04T20:58:10.396Z,15.40
2018-05-04T21:00:43.972Z,15.30
2018-05-04T21:03:17.876Z,15.20
2018-05-04T21:05:51.572Z,15.20
2018-05-04T21:08:25.080Z,15.20
2018-05-04T21:10:58.637Z,15.20
2018-05-04T21:13:32.470Z,15.20
2018-05-04T21:16:06.025Z,15.10
2018-05-04T21:18:39.672Z,15.20
2018-05-04T21:21:13.241Z,15.20
2018-05-04T21:23:46.912Z,15.20
2018-05-04T21:26:20.465Z,15.10
2018-05-04T21:28:54.044Z,15.10
2018-05-04T21:31:27.658Z,15.10
2018-05-04T21:34:01.236Z,15.10
2018-05-04T21:36:34.848Z,15.10
2018-05-04T21:39:08.367Z,15.10
2018-05-04T21:41:41.939Z,15.00
2018-05-04T21:44:15.548Z,15.00
2018-05-04T21:46:49.076Z,14.80
2018-05-04T21:49:22.778Z,14.80
2018-05-04T21:51:56.433Z,14.80
2018-05-04T21:54:29.955Z,14.80
2018-05-04T21:57:03.522Z,14.80
2018-05-04T21:59:37.040Z,14.80
2018-05-04T22:02:10.620Z,14.80
2018-05-04T22:04:45.022Z,14.70
2018-05-04T22:07:18.663Z,14.70
2018-05-04T22:09:52.289Z,14.70
2018-05-04T22:12:25.843Z,14.70
2018-05-04T22:14:59.472Z,14.70
2018-05-04T22:17:33.011Z,14.70
2018-05-04T22:20:06.576Z,14.60
2018-05-04T22:22:40.167Z,14.50
2018-05-04T22:25:14.596Z,14.50
2018-05-04T22:27:48.269Z,14.50
2018-05-04T22:30:22.606Z,14.50
2018-05-04T22:32:56.247Z,14.50
2018-05-04T22:35:30.563Z,14.50
2018-05-04T22:38:04.260Z,14.50
2018-05-04T22:40:37.873Z,14.40
2018-05-04T22:43:11.453Z,14.30
2018-05-04T22:45:44.975Z,14.30
2018-05-04T22:48:18.617Z,14.20
2018-05-04T22:50:52.224Z,14.20
2018-05-04T22:53:26.592Z,14.20
2018-05-04T22:56:00.247Z,14.20
2018-05-04T22:58:33.898Z,14.20
2018-05-04T23:01:07.442Z,14.20
2018-05-04T23:03:41.002Z,14.20
2018-05-04T23:06:15.388Z,14.00
2018-05-04T23:08:49.132Z,14.00
2018-05-04T23:11:22.665Z,14.00
2018-05-04T23:13:56.303Z,13.90
2018-05-04T23:16:29.870Z,13.90
2018-05-04T23:19:03.474Z,13.80
2018-05-04T23:21:37.084Z,13.80
2018-05-04T23:24:10.672Z,13.80
2018-05-04T23:26:44.197Z,13.70
2018-05-04T23:29:17.796Z,13.70
2018-05-04T23:31:51.400Z,13.70
2018-05-04T23:34:24.989Z,13.60
2018-05-04T23:36:58.488Z,13.60
2018-05-04T23:39:32.007Z,13.60
2018-05-04T23:42:05.546Z,13.70
2018-05-04T23:44:40.013Z,13.90
2018-05-04T23:47:14.420Z,13.90
2018-05-04T23:49:48.948Z,14.00
2018-05-04T23:52:22.544Z,14.00
2018-05-04T23:54:56.164Z,14.10
2018-05-04T23:57:29.876Z,14.10
